createdAt,value
2023-02-15T00:01:34.712Z,2.05
2023-02-15T00:04:01.112Z,2.08
2023-02-15T00:06:27.541Z,2.15
2023-02-15T00:08:54.335Z,2.18
2023-02-15T00:11:22.361Z,2.19
2023-02-15T00:13:48.682Z,2.24
2023-02-15T00:16:15.056Z,2.29
2023-02-15T00:18:41.382Z,2.35
2023-02-15T00:21:08.562Z,2.39
2023-02-15T00:23:35.269Z,2.41
2023-02-15T00:26:05.266Z,2.41
2023-02-15T00:28:32.942Z,2.35
2023-02-15T00:31:03.730Z,2.24
2023-02-15T00:33:30.126Z,2.16
2023-02-15T00:35:56.849Z,2.12
2023-02-15T00:38:23.164Z,2.07
2023-02-15T00:40:52.529Z,1.97
2023-02-15T00:43:18.837Z,1.94
2023-02-15T00:45:47.182Z,1.98
2023-02-15T00:48:13.516Z,2.00
2023-02-15T00:50:40.042Z,1.99
2023-02-15T00:53:06.591Z,1.99
2023-02-15T00:55:32.911Z,1.98
2023-02-15T00:57:59.254Z,2.03
2023-02-15T01:00:25.594Z,2.03
2023-02-15T01:02:53.258Z,2.04
2023-02-15T01:05:19.768Z,2.04
2023-02-15T01:07:46.098Z,2.03
2023-02-15T01:10:12.385Z,2.07
2023-02-15T01:12:38.676Z,2.11
2023-02-15T01:15:05.229Z,2.12
2023-02-15T01:17:32.208Z,2.12
2023-02-15T01:19:59.878Z,2.06
2023-02-15T01:22:26.201Z,2.00
2023-02-15T01:24:52.818Z,1.99
2023-02-15T01:27:19.475Z,1.97
2023-02-15T01:29:45.784Z,1.89
2023-02-15T01:32:12.263Z,1.82
2023-02-15T01:34:38.630Z,1.79
2023-02-15T01:37:06.291Z,1.79
2023-02-15T01:39:32.617Z,1.83
2023-02-15T01:41:58.942Z,1.88
2023-02-15T01:44:44.046Z,1.92
2023-02-15T01:47:13.001Z,1.94
2023-02-15T01:49:40.186Z,1.96
2023-02-15T01:52:09.330Z,1.97
2023-02-15T01:54:37.363Z,1.99
2023-02-15T01:57:05.671Z,2.02
2023-02-15T01:59:32.600Z,2.06
2023-02-15T02:02:00.373Z,2.10
2023-02-15T02:04:30.685Z,2.07
2023-02-15T02:06:58.414Z,2.08
2023-02-15T02:09:26.348Z,2.09
2023-02-15T02:11:52.870Z,2.09
2023-02-15T02:14:19.372Z,2.08
2023-02-15T02:16:52.279Z,2.08
2023-02-15T02:19:38.035Z,2.09
2023-02-15T02:22:24.984Z,2.09
2023-02-15T02:25:12.807Z,2.07
2023-02-15T02:27:40.354Z,2.03
2023-02-15T02:30:36.793Z,2.01
2023-02-15T02:33:15.189Z,1.97
2023-02-15T02:35:46.213Z,1.96
2023-02-15T02:38:18.671Z,1.97
2023-02-15T02:40:53.586Z,1.96
2023-02-15T02:43:22.016Z,1.95
2023-02-15T02:45:51.947Z,1.92
2023-02-15T02:48:21.974Z,1.91
2023-02-15T02:50:48.307Z,1.89
2023-02-15T02:53:14.665Z,1.85
2023-02-15T02:55:43.472Z,1.82
2023-02-15T02:58:12.356Z,1.80
2023-02-15T03:00:40.690Z,1.80
2023-02-15T03:03:09.521Z,1.81
2023-02-15T03:05:40.528Z,1.82
2023-02-15T03:08:07.696Z,1.84
2023-02-15T03:10:35.244Z,1.82
2023-02-15T03:13:01.722Z,1.80
2023-02-15T03:15:30.609Z,1.79
2023-02-15T03:17:58.729Z,1.74
2023-02-15T03:20:27.299Z,1.71
2023-02-15T03:22:57.762Z,1.71
2023-02-15T03:25:26.113Z,1.68
2023-02-15T03:27:54.264Z,1.67
2023-02-15T03:30:22.544Z,1.66
2023-02-15T03:32:49.472Z,1.67
2023-02-15T03:35:15.977Z,1.68
2023-02-15T03:37:44.566Z,1.67
2023-02-15T03:40:16.868Z,1.66
2023-02-15T03:42:44.032Z,1.66
2023-02-15T03:45:12.452Z,1.62
2023-02-15T03:47:40.424Z,1.59
2023-02-15T03:50:08.970Z,1.60
2023-02-15T03:52:36.792Z,1.61
2023-02-15T03:55:03.160Z,1.62
2023-02-15T03:57:30.831Z,1.63
2023-02-15T03:59:57.392Z,1.63
2023-02-15T04:02:26.206Z,1.61
2023-02-15T04:04:52.539Z,1.60
2023-02-15T04:07:19.008Z,1.57
2023-02-15T04:09:45.366Z,1.51
2023-02-15T04:12:11.815Z,1.50
2023-02-15T04:14:39.478Z,1.48
2023-02-15T04:17:06.038Z,1.48
2023-02-15T04:19:32.360Z,1.44
2023-02-15T04:21:58.663Z,1.41
2023-02-15T04:24:24.955Z,1.38
2023-02-15T04:26:51.291Z,1.37
2023-02-15T04:29:17.588Z,1.37
2023-02-15T04:31:45.269Z,1.36
2023-02-15T04:34:11.627Z,1.36
2023-02-15T04:36:38.058Z,1.37
2023-02-15T04:39:04.461Z,1.35
2023-02-15T04:41:30.798Z,1.33
2023-02-15T04:43:57.084Z,1.29
2023-02-15T04:46:23.442Z,1.28
2023-02-15T04:48:51.290Z,1.27
2023-02-15T04:51:17.577Z,1.24
2023-02-15T04:53:43.893Z,1.24
2023-02-15T04:56:10.190Z,1.23
2023-02-15T04:58:36.580Z,1.23
2023-02-15T05:01:02.944Z,1.23
2023-02-15T05:03:29.369Z,1.20
2023-02-15T05:05:57.048Z,1.18
2023-02-15T05:08:23.361Z,1.19
2023-02-15T05:10:49.682Z,1.19
2023-02-15T05:13:16.293Z,1.16
2023-02-15T05:15:46.995Z,1.17
2023-02-15T05:18:13.291Z,1.14
2023-02-15T05:20:39.602Z,1.13
2023-02-15T05:23:07.272Z,1.12
2023-02-15T05:25:33.577Z,1.13
2023-02-15T05:27:59.872Z,1.10
2023-02-15T05:30:26.407Z,1.08
2023-02-15T05:32:52.857Z,1.07
2023-02-15T05:35:19.361Z,1.06
2023-02-15T05:37:45.685Z,1.07
2023-02-15T05:40:13.433Z,1.06
2023-02-15T05:42:39.730Z,1.06
2023-02-15T05:45:06.613Z,1.03
2023-02-15T05:47:32.938Z,1.00
2023-02-15T05:49:59.283Z,0.99
2023-02-15T05:52:25.641Z,0.97
2023-02-15T05:54:51.966Z,0.96
2023-02-15T05:57:19.672Z,0.96
2023-02-15T05:59:45.970Z,0.94
2023-02-15T06:02:12.337Z,0.92
2023-02-15T06:04:38.672Z,0.91
2023-02-15T06:07:04.980Z,0.87
2023-02-15T06:09:31.293Z,0.86
2023-02-15T06:11:57.574Z,0.84
2023-02-15T06:14:25.224Z,0.84
2023-02-15T06:16:51.520Z,0.84
2023-02-15T06:19:17.831Z,0.83
2023-02-15T06:21:44.248Z,0.84
2023-02-15T06:24:10.674Z,0.83
2023-02-15T06:26:36.976Z,0.82
2023-02-15T06:29:03.324Z,0.84
2023-02-15T06:31:31.095Z,0.82
2023-02-15T06:33:57.496Z,0.80
2023-02-15T06:36:23.799Z,0.82
2023-02-15T06:38:50.137Z,0.80
2023-02-15T06:41:16.463Z,0.79
2023-02-15T06:43:42.758Z,0.79
2023-02-15T06:46:09.118Z,0.79
2023-02-15T06:48:36.742Z,0.80
2023-02-15T06:51:03.140Z,0.79
2023-02-15T06:53:29.492Z,0.78
2023-02-15T06:56:01.139Z,0.77
2023-02-15T06:58:27.670Z,0.78
2023-02-15T07:00:53.984Z,0.79
2023-02-15T07:03:20.310Z,0.77
2023-02-15T07:05:47.949Z,0.80
2023-02-15T07:08:14.270Z,0.80
2023-02-15T07:10:43.959Z,0.83
2023-02-15T07:13:10.272Z,0.84
2023-02-15T07:15:36.610Z,0.86
2023-02-15T07:18:02.926Z,0.88
2023-02-15T07:20:29.227Z,0.88
2023-02-15T07:22:56.895Z,0.90
2023-02-15T07:25:23.221Z,0.94
2023-02-15T07:27:49.521Z,0.98
2023-02-15T07:30:17.436Z,1.03
2023-02-15T07:32:43.951Z,1.05
2023-02-15T07:35:10.267Z,1.08
2023-02-15T07:37:36.549Z,1.12
2023-02-15T07:40:04.638Z,1.15
2023-02-15T07:42:31.357Z,1.19
2023-02-15T07:44:57.717Z,1.21
2023-02-15T07:47:24.044Z,1.27
2023-02-15T07:49:50.456Z,1.30
2023-02-15T07:52:16.802Z,1.37
2023-02-15T07:54:43.105Z,1.42
2023-02-15T07:57:10.760Z,1.48
2023-02-15T07:59:37.055Z,1.53
2023-02-15T08:02:03.341Z,1.60
2023-02-15T08:04:29.628Z,1.65
2023-02-15T08:06:55.923Z,1.71
2023-02-15T08:09:22.773Z,1.77
2023-02-15T08:11:49.401Z,1.78
2023-02-15T08:14:18.265Z,1.82
2023-02-15T08:16:45.407Z,1.89
2023-02-15T08:19:12.775Z,1.97
2023-02-15T08:21:39.790Z,2.02
2023-02-15T08:24:06.843Z,2.10
2023-02-15T08:26:33.591Z,2.18
2023-02-15T08:29:00.746Z,2.22
2023-02-15T08:31:28.684Z,2.32
2023-02-15T08:33:55.808Z,2.41
2023-02-15T08:36:23.168Z,2.50
2023-02-15T08:38:49.862Z,2.60
2023-02-15T08:41:17.427Z,2.67
2023-02-15T08:43:44.193Z,2.78
2023-02-15T08:46:11.369Z,2.89
2023-02-15T08:48:39.254Z,3.03
2023-02-15T08:51:06.869Z,3.13
2023-02-15T08:53:33.250Z,3.22
2023-02-15T08:55:59.839Z,3.31
2023-02-15T08:58:26.287Z,3.41
2023-02-15T09:00:52.632Z,3.47
2023-02-15T09:03:18.992Z,3.55
2023-02-15T09:05:46.655Z,3.65
2023-02-15T09:08:12.941Z,3.78
2023-02-15T09:10:39.249Z,3.86
2023-02-15T09:13:05.525Z,3.92
2023-02-15T09:15:31.814Z,3.99
2023-02-15T09:17:58.113Z,4.08
2023-02-15T09:20:24.526Z,4.19
2023-02-15T09:22:56.428Z,4.29
2023-02-15T09:25:23.597Z,4.38
2023-02-15T09:27:49.895Z,4.47
2023-02-15T09:30:16.399Z,4.56
2023-02-15T09:32:42.743Z,4.65
2023-02-15T09:35:09.062Z,4.73
2023-02-15T09:37:35.386Z,4.85
2023-02-15T09:40:03.091Z,4.97
2023-02-15T09:42:36.161Z,5.06
2023-02-15T09:45:12.970Z,5.16
2023-02-15T09:48:02.153Z,5.28
2023-02-15T09:50:33.851Z,5.42
2023-02-15T09:53:11.298Z,5.52
2023-02-15T09:55:45.934Z,5.65
2023-02-15T09:58:18.256Z,5.75
2023-02-15T10:00:50.868Z,5.85
2023-02-15T10:03:22.281Z,5.95
2023-02-15T10:05:55.251Z,6.05
2023-02-15T10:08:27.681Z,6.18
2023-02-15T10:11:04.292Z,6.33
2023-02-15T10:13:36.744Z,6.44
2023-02-15T10:16:10.535Z,6.57
2023-02-15T10:18:51.653Z,6.71
2023-02-15T10:21:22.707Z,6.84
2023-02-15T10:23:58.025Z,6.92
2023-02-15T10:26:29.166Z,6.97
2023-02-15T10:28:57.561Z,7.08
2023-02-15T10:31:25.863Z,7.14
2023-02-15T10:34:03.421Z,7.25
2023-02-15T10:36:40.879Z,7.35
2023-02-15T10:39:13.695Z,7.47
2023-02-15T10:41:47.438Z,7.58
2023-02-15T10:44:28.963Z,7.68
2023-02-15T10:47:12.418Z,7.79
2023-02-15T10:49:50.067Z,7.93
2023-02-15T10:52:24.311Z,8.05
2023-02-15T10:54:56.257Z,8.18
2023-02-15T10:57:26.253Z,8.29
2023-02-15T11:00:00.997Z,8.41
2023-02-15T11:02:34.059Z,8.47
2023-02-15T11:05:11.550Z,8.53
2023-02-15T11:07:39.887Z,8.61
2023-02-15T11:10:16.767Z,8.67
2023-02-15T11:12:46.722Z,8.79
2023-02-15T11:15:17.650Z,8.87
2023-02-15T11:17:47.677Z,8.92
2023-02-15T11:20:19.450Z,8.95
2023-02-15T11:22:48.887Z,9.03
2023-02-15T11:25:18.005Z,9.09
2023-02-15T11:27:47.768Z,9.17
2023-02-15T11:30:15.369Z,9.27
2023-02-15T11:32:44.271Z,9.34
2023-02-15T11:35:18.796Z,9.41
2023-02-15T11:37:47.224Z,9.48
2023-02-15T11:40:18.840Z,9.54
2023-02-15T11:42:47.643Z,9.60
2023-02-15T11:45:20.702Z,9.62
2023-02-15T11:47:47.138Z,9.63
2023-02-15T11:50:15.825Z,9.67
2023-02-15T11:52:42.150Z,9.68
2023-02-15T11:55:12.518Z,9.75
2023-02-15T11:57:40.044Z,9.82
2023-02-15T12:00:11.565Z,9.88
2023-02-15T12:02:39.660Z,9.95
2023-02-15T12:05:10.177Z,9.98
2023-02-15T12:07:37.589Z,10.02
2023-02-15T12:10:05.259Z,10.06
2023-02-15T12:12:32.566Z,10.10
2023-02-15T12:14:59.413Z,10.14
2023-02-15T12:17:27.589Z,10.21
2023-02-15T12:19:56.083Z,10.25
2023-02-15T12:22:23.882Z,10.29
2023-02-15T12:24:51.769Z,10.30
2023-02-15T12:27:19.052Z,10.34
2023-02-15T12:29:47.193Z,10.40
2023-02-15T12:32:18.254Z,10.46
2023-02-15T12:34:46.783Z,10.54
2023-02-15T12:37:16.433Z,10.60
2023-02-15T12:39:51.710Z,10.67
2023-02-15T12:42:18.077Z,10.73
2023-02-15T12:44:53.831Z,10.79
2023-02-15T12:47:20.802Z,10.86
2023-02-15T12:50:05.441Z,10.93
2023-02-15T12:52:31.774Z,11.04
2023-02-15T12:55:10.331Z,11.11
2023-02-15T12:57:36.688Z,11.15
2023-02-15T13:00:04.505Z,11.23
2023-02-15T13:02:35.920Z,11.28
2023-02-15T13:05:11.264Z,11.36
2023-02-15T13:07:37.890Z,11.41
2023-02-15T13:10:04.747Z,11.43
2023-02-15T13:12:32.646Z,11.45
2023-02-15T13:14:59.264Z,11.51
2023-02-15T13:17:27.590Z,11.58
2023-02-15T13:19:54.490Z,11.64
2023-02-15T13:22:25.292Z,11.68
2023-02-15T13:24:56.822Z,11.71
2023-02-15T13:27:25.278Z,11.69
2023-02-15T13:29:53.590Z,11.67
2023-02-15T13:32:26.243Z,11.65
2023-02-15T13:34:55.255Z,11.59
2023-02-15T13:37:30.002Z,11.55
2023-02-15T13:39:59.006Z,11.56
2023-02-15T13:42:27.372Z,11.55
2023-02-15T13:45:07.249Z,11.56
2023-02-15T13:47:35.266Z,11.62
2023-02-15T13:50:12.030Z,11.66
2023-02-15T13:52:43.574Z,11.73
2023-02-15T13:55:22.087Z,11.80
2023-02-15T13:57:55.887Z,11.84
2023-02-15T14:00:23.745Z,11.89
2023-02-15T14:02:57.703Z,11.95
2023-02-15T14:05:30.165Z,11.97
2023-02-15T14:08:02.379Z,11.99
2023-02-15T14:10:35.612Z,12.01
2023-02-15T14:13:19.618Z,11.99
2023-02-15T14:15:48.997Z,11.99
2023-02-15T14:18:20.433Z,11.98
2023-02-15T14:20:52.465Z,11.98
2023-02-15T14:23:27.819Z,11.99
2023-02-15T14:25:56.525Z,11.97
2023-02-15T14:28:26.487Z,11.95
2023-02-15T14:30:53.549Z,11.94
2023-02-15T14:33:32.704Z,11.90
2023-02-15T14:36:00.907Z,11.87
2023-02-15T14:38:39.476Z,11.82
2023-02-15T14:41:11.616Z,11.79
2023-02-15T14:43:47.256Z,11.76
2023-02-15T14:46:17.558Z,11.72
2023-02-15T14:48:46.276Z,11.69
2023-02-15T14:51:38.029Z,11.65
2023-02-15T14:54:07.203Z,11.65
2023-02-15T14:56:33.562Z,11.63
2023-02-15T14:59:02.380Z,11.61
2023-02-15T15:01:30.460Z,11.59
2023-02-15T15:04:00.114Z,11.60
2023-02-15T15:06:27.898Z,11.59
2023-02-15T15:08:56.383Z,11.56
2023-02-15T15:11:44.031Z,11.54
2023-02-15T15:14:10.938Z,11.53
2023-02-15T15:16:50.673Z,11.48
2023-02-15T15:19:50.758Z,11.47
2023-02-15T15:22:18.556Z,11.44
2023-02-15T15:24:51.873Z,11.39
2023-02-15T15:27:37.065Z,11.37
2023-02-15T15:30:25.546Z,11.32
2023-02-15T15:32:57.804Z,11.24
2023-02-15T15:35:27.556Z,11.19
2023-02-15T15:38:23.622Z,11.17
2023-02-15T15:41:04.284Z,11.15
2023-02-15T15:43:49.293Z,11.11
2023-02-15T15:46:41.970Z,11.01
2023-02-15T15:49:10.497Z,10.93
2023-02-15T15:51:39.903Z,10.83
2023-02-15T15:54:06.231Z,10.73
2023-02-15T15:56:34.449Z,10.62
2023-02-15T15:59:02.303Z,10.55
2023-02-15T16:01:30.027Z,10.48
2023-02-15T16:03:58.760Z,10.41
2023-02-15T16:06:29.658Z,10.35
2023-02-15T16:08:56.152Z,10.27
2023-02-15T16:11:23.859Z,10.20
2023-02-15T16:13:50.730Z,10.09
2023-02-15T16:16:21.970Z,10.02
2023-02-15T16:18:48.620Z,9.94
2023-02-15T16:21:18.081Z,9.89
2023-02-15T16:23:57.360Z,9.81
2023-02-15T16:26:36.846Z,9.74
2023-02-15T16:29:14.405Z,9.64
2023-02-15T16:31:40.840Z,9.56
2023-02-15T16:34:10.305Z,9.48
2023-02-15T16:36:37.984Z,9.40
2023-02-15T16:39:08.504Z,9.32
2023-02-15T16:41:34.859Z,9.26
2023-02-15T16:44:04.393Z,9.19
2023-02-15T16:46:32.165Z,9.10
2023-02-15T16:49:00.057Z,9.04
2023-02-15T16:51:28.711Z,8.97
2023-02-15T16:53:57.590Z,8.91
2023-02-15T16:56:24.347Z,8.84
2023-02-15T16:58:51.860Z,8.77
2023-02-15T17:01:21.002Z,8.71
2023-02-15T17:03:49.384Z,8.65
2023-02-15T17:06:20.525Z,8.59
2023-02-15T17:08:46.822Z,8.55
2023-02-15T17:11:16.196Z,8.49
2023-02-15T17:13:57.397Z,8.43
2023-02-15T17:16:27.688Z,8.38
2023-02-15T17:18:54.105Z,8.32
2023-02-15T17:21:21.721Z,8.27
2023-02-15T17:23:49.351Z,8.21
2023-02-15T17:26:21.076Z,8.14
2023-02-15T17:28:48.776Z,8.09
2023-02-15T17:31:17.259Z,8.01
2023-02-15T17:33:43.963Z,7.95
2023-02-15T17:36:12.242Z,7.89
2023-02-15T17:38:39.452Z,7.85
2023-02-15T17:41:05.758Z,7.79
2023-02-15T17:43:33.417Z,7.76
2023-02-15T17:45:59.938Z,7.71
2023-02-15T17:48:29.582Z,7.66
2023-02-15T17:50:55.859Z,7.62
2023-02-15T17:53:22.262Z,7.59
2023-02-15T17:55:48.542Z,7.55
2023-02-15T17:58:15.448Z,7.54
2023-02-15T18:00:44.254Z,7.51
2023-02-15T18:03:12.274Z,7.50
2023-02-15T18:05:38.681Z,7.48
2023-02-15T18:08:05.967Z,7.45
2023-02-15T18:10:32.298Z,7.43
2023-02-15T18:12:58.616Z,7.40
2023-02-15T18:15:24.955Z,7.33
2023-02-15T18:17:52.641Z,7.28
2023-02-15T18:20:20.734Z,7.26
2023-02-15T18:22:47.062Z,7.23
2023-02-15T18:25:14.747Z,7.20
2023-02-15T18:27:41.049Z,7.15
2023-02-15T18:30:08.057Z,7.10
2023-02-15T18:32:36.186Z,7.07
2023-02-15T18:35:04.463Z,7.04
2023-02-15T18:37:32.156Z,7.03
2023-02-15T18:39:59.343Z,7.01
2023-02-15T18:42:26.687Z,7.01
2023-02-15T18:44:54.980Z,6.97
2023-02-15T18:47:21.276Z,6.95
2023-02-15T18:49:47.596Z,6.92
2023-02-15T18:52:16.455Z,6.90
2023-02-15T18:54:43.475Z,6.88
2023-02-15T18:57:12.883Z,6.90
2023-02-15T18:59:39.203Z,6.88
2023-02-15T19:02:10.511Z,6.85
2023-02-15T19:04:36.851Z,6.84
2023-02-15T19:07:03.153Z,6.87
2023-02-15T19:09:30.989Z,6.93
2023-02-15T19:11:58.659Z,6.94
2023-02-15T19:14:26.789Z,6.91
2023-02-15T19:16:53.562Z,6.90
2023-02-15T19:19:20.068Z,6.90
2023-02-15T19:21:46.772Z,6.91
2023-02-15T19:24:16.705Z,6.90
2023-02-15T19:26:46.203Z,6.88
2023-02-15T19:29:17.542Z,6.85
2023-02-15T19:31:43.983Z,6.86
2023-02-15T19:34:13.680Z,6.87
2023-02-15T19:36:40.136Z,6.87
2023-02-15T19:39:06.475Z,6.87
2023-02-15T19:41:33.390Z,6.87
2023-02-15T19:44:01.046Z,6.86
2023-02-15T19:46:27.439Z,6.86
2023-02-15T19:48:53.849Z,6.85
2023-02-15T19:51:21.425Z,6.84
2023-02-15T19:53:48.482Z,6.81
2023-02-15T19:56:17.491Z,6.78
2023-02-15T19:58:43.833Z,6.74
2023-02-15T20:01:11.490Z,6.72
2023-02-15T20:03:37.830Z,6.69
2023-02-15T20:06:04.540Z,6.64
2023-02-15T20:08:31.392Z,6.61
2023-02-15T20:10:57.891Z,6.61
2023-02-15T20:13:24.878Z,6.61
2023-02-15T20:15:51.769Z,6.61
2023-02-15T20:18:22.297Z,6.60
2023-02-15T20:20:50.386Z,6.61
2023-02-15T20:23:18.277Z,6.62
2023-02-15T20:25:44.702Z,6.65
2023-02-15T20:28:14.533Z,6.63
2023-02-15T20:30:40.848Z,6.63
2023-02-15T20:33:07.157Z,6.61
2023-02-15T20:35:34.853Z,6.62
2023-02-15T20:38:02.507Z,6.61
2023-02-15T20:40:30.570Z,6.60
2023-02-15T20:42:56.910Z,6.60
2023-02-15T20:45:24.286Z,6.58
2023-02-15T20:47:51.112Z,6.57
2023-02-15T20:50:18.354Z,6.56
2023-02-15T20:52:46.583Z,6.54
2023-02-15T20:55:14.147Z,6.51
2023-02-15T20:57:40.549Z,6.49
2023-02-15T21:00:12.446Z,6.48
2023-02-15T21:02:38.763Z,6.45
2023-02-15T21:05:13.243Z,6.45
2023-02-15T21:07:39.547Z,6.44
2023-02-15T21:10:08.321Z,6.44
2023-02-15T21:12:34.665Z,6.42
2023-02-15T21:15:00.988Z,6.41
2023-02-15T21:17:27.257Z,6.40
2023-02-15T21:19:53.555Z,6.40
2023-02-15T21:22:19.883Z,6.39
2023-02-15T21:24:49.140Z,6.38
2023-02-15T21:27:16.842Z,6.38
2023-02-15T21:29:43.164Z,6.39
2023-02-15T21:32:09.846Z,6.36
2023-02-15T21:34:36.273Z,6.37
2023-02-15T21:37:02.615Z,6.35
2023-02-15T21:39:31.181Z,6.35
2023-02-15T21:41:57.504Z,6.33
2023-02-15T21:44:25.247Z,6.33
2023-02-15T21:46:51.684Z,6.28
2023-02-15T21:49:18.037Z,6.26
2023-02-15T21:51:44.373Z,6.24
2023-02-15T21:54:11.839Z,6.21
2023-02-15T21:56:38.257Z,6.18
2023-02-15T21:59:08.840Z,6.17
2023-02-15T22:01:36.524Z,6.15
2023-02-15T22:04:02.830Z,6.11
2023-02-15T22:06:29.171Z,6.10
2023-02-15T22:08:55.491Z,6.07
2023-02-15T22:11:21.830Z,6.05
2023-02-15T22:13:48.879Z,6.05
2023-02-15T22:16:16.152Z,6.07
2023-02-15T22:18:44.181Z,6.08
2023-02-15T22:21:10.916Z,6.08
2023-02-15T22:23:37.312Z,6.08
2023-02-15T22:26:05.457Z,6.07
2023-02-15T22:28:32.649Z,6.04
2023-02-15T22:30:58.976Z,6.04
2023-02-15T22:33:26.838Z,6.03
2023-02-15T22:35:54.790Z,6.02
2023-02-15T22:38:21.351Z,6.00
2023-02-15T22:40:48.423Z,6.00
2023-02-15T22:43:21.518Z,5.97
2023-02-15T22:45:47.987Z,5.95
2023-02-15T22:48:15.094Z,5.92
2023-02-15T22:50:41.412Z,5.91
2023-02-15T22:53:09.835Z,5.88
2023-02-15T22:55:37.332Z,5.90
2023-02-15T22:58:03.990Z,5.88
2023-02-15T23:00:32.304Z,5.88
2023-02-15T23:02:58.635Z,5.87
2023-02-15T23:05:26.111Z,5.85
2023-02-15T23:07:52.624Z,5.84
2023-02-15T23:10:21.333Z,5.84
2023-02-15T23:12:48.518Z,5.79
2023-02-15T23:15:14.867Z,5.75
2023-02-15T23:17:41.204Z,5.77
2023-02-15T23:20:13.069Z,5.77
2023-02-15T23:22:39.516Z,5.78
2023-02-15T23:25:09.439Z,5.78
2023-02-15T23:27:37.245Z,5.76
2023-02-15T23:30:04.377Z,5.75
2023-02-15T23:32:31.136Z,5.76
2023-02-15T23:34:57.583Z,5.79
2023-02-15T23:37:23.960Z,5.91
2023-02-15T23:39:51.582Z,5.91
2023-02-15T23:42:19.403Z,5.88
2023-02-15T23:44:47.887Z,5.82
2023-02-15T23:47:19.044Z,5.75
2023-02-15T23:49:45.379Z,5.68
2023-02-15T23:52:11.898Z,5.64
2023-02-15T23:54:38.230Z,5.57
2023-02-15T23:57:04.700Z,5.52
2023-02-15T23:59:32.114Z,5.44
